createdAt,value
2023-03-12T13:39:21.534Z,11.68
2023-03-12T13:41:56.297Z,8.38
2023-03-12T13:44:38.617Z,9.45
2023-03-12T13:47:23.756Z,9.43
2023-03-12T13:50:00.840Z,10.50
2023-03-12T13:52:39.102Z,10.68
2023-03-12T13:55:23.381Z,10.13
2023-03-12T13:57:58.747Z,8.73
2023-03-12T14:00:37.453Z,7.90
2023-03-12T14:03:17.369Z,8.68
2023-03-12T14:05:54.342Z,9.27
2023-03-12T14:08:54.481Z,9.65
2023-03-12T14:11:45.639Z,9.52
2023-03-12T14:14:41.642Z,9.60
2023-03-12T14:17:18.591Z,9.02
2023-03-12T14:19:58.255Z,8.77
2023-03-12T14:22:34.088Z,8.70
2023-03-12T14:25:15.707Z,8.68
2023-03-12T14:27:50.128Z,9.93
2023-03-12T14:30:26.198Z,9.43
2023-03-12T14:33:03.688Z,9.82
2023-03-12T14:35:42.368Z,9.05
2023-03-12T14:38:19.037Z,8.63
2023-03-12T14:40:56.618Z,9.57
2023-03-12T14:43:33.142Z,11.88
2023-03-12T14:46:14.865Z,9.57
2023-03-12T14:48:49.740Z,10.45
2023-03-12T14:51:25.340Z,9.68
2023-03-12T14:54:04.272Z,9.40
2023-03-12T14:56:37.155Z,7.90
2023-03-12T14:59:24.034Z,11.00
2023-03-12T15:02:01.574Z,8.85
2023-03-12T15:04:36.250Z,10.68
2023-03-12T15:07:12.883Z,9.82
2023-03-12T15:09:49.895Z,9.48
2023-03-12T15:12:25.067Z,9.75
2023-03-12T15:15:07.123Z,9.32
2023-03-12T15:17:40.011Z,11.02
2023-03-12T15:22:49.975Z,10.02
2023-03-12T15:25:23.973Z,9.35
2023-03-12T15:28:06.063Z,9.23
2023-03-12T15:30:41.288Z,8.68
2023-03-12T15:33:25.771Z,9.70
2023-03-12T15:36:02.373Z,9.48
2023-03-12T15:38:38.344Z,9.15
2023-03-12T15:41:23.127Z,10.40
2023-03-12T15:43:58.607Z,8.40
2023-03-12T15:46:34.065Z,9.02
2023-03-12T15:49:07.341Z,11.55
2023-03-12T15:51:40.582Z,11.45
2023-03-12T15:54:27.310Z,10.52
2023-03-12T15:57:22.551Z,10.00
2023-03-12T16:00:17.596Z,11.45
2023-03-12T16:02:54.622Z,12.75
2023-03-12T16:05:31.888Z,9.73
2023-03-12T16:08:16.385Z,12.10
2023-03-12T16:10:50.673Z,11.85
2023-03-12T16:13:29.983Z,12.05
2023-03-12T16:16:05.693Z,12.00
2023-03-12T16:18:40.271Z,11.63
2023-03-12T16:21:13.460Z,11.25
2023-03-12T16:23:46.244Z,12.63
2023-03-12T16:26:19.716Z,8.90
2023-03-12T16:28:52.677Z,11.18
2023-03-12T16:31:25.573Z,10.60
2023-03-12T16:36:32.884Z,10.10
2023-03-12T16:39:06.030Z,9.82
2023-03-12T16:41:39.607Z,9.10
2023-03-12T16:44:17.088Z,7.57
2023-03-12T16:46:50.267Z,7.72
2023-03-12T16:49:24.568Z,7.35
2023-03-12T16:51:57.709Z,6.68
2023-03-12T16:57:03.262Z,6.27
2023-03-12T17:02:16.605Z,6.45
2023-03-12T17:04:51.110Z,6.00
2023-03-12T17:07:24.109Z,6.65
2023-03-12T17:12:32.223Z,6.72
2023-03-12T17:15:09.057Z,5.68
2023-03-12T17:17:42.037Z,5.00
2023-03-12T17:20:18.032Z,4.07
2023-03-12T17:22:51.350Z,4.57
2023-03-12T17:25:27.217Z,4.90
2023-03-12T17:28:00.469Z,3.33
2023-03-12T17:30:34.427Z,3.83
2023-03-12T17:33:10.450Z,4.78
2023-03-12T17:35:47.002Z,4.40
2023-03-12T17:38:20.520Z,4.38
2023-03-12T17:40:53.339Z,4.72
2023-03-12T17:43:26.374Z,3.35
2023-03-12T17:48:32.160Z,4.38
2023-03-12T17:51:08.600Z,5.15
2023-03-12T17:53:42.183Z,5.45
2023-03-12T17:56:17.892Z,4.53
2023-03-12T17:58:50.877Z,5.47
2023-03-12T18:03:56.332Z,4.33
2023-03-12T18:06:30.444Z,6.22
2023-03-12T18:09:04.013Z,5.03
2023-03-12T18:11:36.982Z,6.55
2023-03-12T18:16:42.491Z,4.88
2023-03-12T18:19:16.079Z,4.82
2023-03-12T18:21:50.167Z,4.38
2023-03-12T18:24:23.384Z,4.40
2023-03-12T18:26:56.360Z,4.38
2023-03-12T18:32:01.829Z,4.45
2023-03-12T18:34:34.572Z,5.38
2023-03-12T18:37:08.693Z,6.10
2023-03-12T18:39:41.686Z,5.55
2023-03-12T18:44:47.272Z,4.80
2023-03-12T18:47:20.325Z,4.63
2023-03-12T18:52:29.264Z,4.80
2023-03-12T18:55:02.215Z,4.85
2023-03-12T19:00:13.272Z,4.82
2023-03-12T19:02:48.093Z,5.60
2023-03-12T19:05:21.606Z,6.40
2023-03-12T19:07:55.893Z,4.68
2023-03-12T19:10:29.005Z,5.07
2023-03-12T19:13:02.215Z,6.43
2023-03-12T19:15:38.159Z,6.13
2023-03-12T19:18:10.970Z,5.75
2023-03-12T19:20:43.722Z,4.75
2023-03-12T19:23:19.998Z,5.63
2023-03-12T19:25:53.100Z,6.40
2023-03-12T19:28:28.487Z,5.22
2023-03-12T19:31:01.853Z,5.72
2023-03-12T19:33:35.050Z,6.30
2023-03-12T20:10:39.469Z,5.40
2023-03-12T20:39:07.731Z,6.03
2023-03-12T20:41:42.719Z,5.50
2023-03-12T20:44:15.946Z,6.32
2023-03-12T20:46:48.721Z,5.80
2023-03-12T20:49:21.564Z,6.72
2023-03-12T20:51:54.231Z,6.40
2023-03-12T20:54:28.578Z,5.53
2023-03-12T20:57:01.376Z,7.00
2023-03-12T20:59:34.047Z,8.23
2023-03-12T21:02:06.830Z,6.22
2023-03-12T21:04:45.424Z,7.32
2023-03-12T21:07:23.355Z,6.07
2023-03-12T21:32:23.413Z,6.90
2023-03-12T21:41:13.339Z,6.53
2023-03-12T21:46:35.825Z,5.55
2023-03-12T22:17:17.555Z,6.45
2023-03-12T22:19:51.768Z,6.93
2023-03-12T22:22:24.587Z,7.05
2023-03-12T22:24:57.257Z,7.82
2023-03-12T22:27:30.160Z,7.38
2023-03-12T22:30:03.328Z,7.05
2023-03-12T22:32:37.672Z,7.50
2023-03-12T22:35:10.811Z,7.32
2023-03-12T22:37:45.260Z,8.20
2023-03-12T22:40:18.189Z,6.95
2023-03-12T22:45:24.152Z,7.13
2023-03-12T22:47:58.417Z,9.57
2023-03-12T22:50:31.386Z,7.95
2023-03-12T22:55:36.804Z,8.33
2023-03-12T22:58:10.434Z,7.47
2023-03-12T23:00:43.264Z,7.35
2023-03-12T23:03:17.455Z,9.00
2023-03-12T23:05:50.140Z,8.60
2023-03-12T23:08:23.606Z,6.90
2023-03-12T23:10:58.813Z,6.93
2023-03-12T23:13:34.589Z,6.38
2023-03-12T23:16:09.787Z,7.03
2023-03-12T23:18:45.876Z,6.97
2023-03-12T23:21:21.340Z,7.03
2023-03-12T23:23:54.341Z,6.10
2023-03-12T23:29:03.915Z,6.85
2023-03-12T23:34:11.429Z,6.50
2023-03-12T23:36:46.015Z,5.65
2023-03-12T23:39:18.915Z,4.97
2023-03-12T23:44:24.383Z,5.70
2023-03-12T23:46:57.190Z,5.97
2023-03-12T23:49:31.301Z,5.65
2023-03-12T23:52:04.329Z,5.93
2023-03-12T23:54:37.230Z,5.95
2023-03-12T23:57:09.982Z,5.75
2023-03-12T23:59:42.812Z,6.85
